sensor_id;sensor_type;location;lat;lon;timestamp;P1;durP1;ratioP1;P2;durP2;ratioP2
9884;SDS011;4981;50.966;4.842;2023-11-21T19:33:19;11.80;;;10.43;;
9884;SDS011;4981;50.966;4.842;2023-11-21T19:35:46;11.60;;;10.30;;
9884;SDS011;4981;50.966;4.842;2023-11-21T19:38:14;10.37;;;7.83;;
9884;SDS011;4981;50.966;4.842;2023-11-21T19:40:41;9.13;;;7.17;;
9884;SDS011;4981;50.966;4.842;2023-11-21T19:43:09;8.83;;;6.93;;
9884;SDS011;4981;50.966;4.842;2023-11-21T19:45:36;11.83;;;10.37;;
9884;SDS011;4981;50.966;4.842;2023-11-21T19:48:03;11.17;;;10.00;;
9884;SDS011;4981;50.966;4.842;2023-11-21T19:50:32;9.17;;;8.23;;
9884;SDS011;4981;50.966;4.842;2023-11-21T19:52:59;7.57;;;5.73;;
9884;SDS011;4981;50.966;4.842;2023-11-21T19:55:28;10.60;;;9.10;;
9884;SDS011;4981;50.966;4.842;2023-11-21T19:57:55;8.33;;;7.47;;
9884;SDS011;4981;50.966;4.842;2023-11-21T20:00:22;12.27;;;10.93;;
9884;SDS011;4981;50.966;4.842;2023-11-21T20:02:50;7.07;;;6.20;;
9884;SDS011;4981;50.966;4.842;2023-11-21T20:05:17;11.57;;;8.77;;
9884;SDS011;4981;50.966;4.842;2023-11-21T20:07:45;12.63;;;10.97;;
9884;SDS011;4981;50.966;4.842;2023-11-21T20:10:12;12.33;;;10.47;;
9884;SDS011;4981;50.966;4.842;2023-11-21T20:12:39;8.03;;;7.23;;
9884;SDS011;4981;50.966;4.842;2023-11-21T20:15:07;8.23;;;6.67;;
9884;SDS011;4981;50.966;4.842;2023-11-21T20:17:34;10.30;;;9.10;;
9884;SDS011;4981;50.966;4.842;2023-11-21T20:20:02;13.07;;;10.80;;
9884;SDS011;4981;50.966;4.842;2023-11-21T20:22:30;10.00;;;9.00;;
9884;SDS011;4981;50.966;4.842;2023-11-21T20:25:02;9.40;;;8.43;;
9884;SDS011;4981;50.966;4.842;2023-11-21T20:27:29;9.23;;;8.00;;
9884;SDS011;4981;50.966;4.842;2023-11-21T20:29:56;14.13;;;12.00;;
9884;SDS011;4981;50.966;4.842;2023-11-21T20:32:25;13.10;;;11.23;;
9884;SDS011;4981;50.966;4.842;2023-11-21T20:34:52;12.37;;;11.17;;
9884;SDS011;4981;50.966;4.842;2023-11-21T20:37:19;15.00;;;10.90;;
9884;SDS011;4981;50.966;4.842;2023-11-21T20:39:46;12.80;;;11.17;;
9884;SDS011;4981;50.966;4.842;2023-11-21T20:42:16;15.33;;;11.83;;
9884;SDS011;4981;50.966;4.842;2023-11-21T20:44:43;12.03;;;10.83;;
9884;SDS011;4981;50.966;4.842;2023-11-21T20:47:10;14.50;;;11.53;;
9884;SDS011;4981;50.966;4.842;2023-11-21T20:49:37;14.73;;;11.90;;
9884;SDS011;4981;50.966;4.842;2023-11-21T20:52:04;12.47;;;11.13;;
9884;SDS011;4981;50.966;4.842;2023-11-21T20:54:31;12.67;;;11.03;;
9884;SDS011;4981;50.966;4.842;2023-11-21T20:56:58;12.70;;;11.40;;
9884;SDS011;4981;50.966;4.842;2023-11-21T20:59:27;13.00;;;10.83;;
9884;SDS011;4981;50.966;4.842;2023-11-21T21:01:54;9.33;;;7.57;;
9884;SDS011;4981;50.966;4.842;2023-11-21T21:04:21;13.43;;;11.47;;
9884;SDS011;4981;50.966;4.842;2023-11-21T21:06:48;12.60;;;10.93;;
9884;SDS011;4981;50.966;4.842;2023-11-21T21:09:15;13.27;;;11.80;;
9884;SDS011;4981;50.966;4.842;2023-11-21T21:11:43;18.33;;;11.70;;
9884;SDS011;4981;50.966;4.842;2023-11-21T21:14:10;12.57;;;11.27;;
9884;SDS011;4981;50.966;4.842;2023-11-21T21:16:40;13.97;;;11.40;;
9884;SDS011;4981;50.966;4.842;2023-11-21T21:19:07;14.43;;;12.20;;
9884;SDS011;4981;50.966;4.842;2023-11-21T21:21:35;11.43;;;9.50;;
9884;SDS011;4981;50.966;4.842;2023-11-21T21:24:03;16.03;;;12.90;;
9884;SDS011;4981;50.966;4.842;2023-11-21T21:26:30;15.70;;;13.10;;
9884;SDS011;4981;50.966;4.842;2023-11-21T21:28:58;13.90;;;12.43;;
9884;SDS011;4981;50.966;4.842;2023-11-21T21:31:26;16.37;;;13.80;;
9884;SDS011;4981;50.966;4.842;2023-11-21T21:33:54;19.50;;;13.57;;
9884;SDS011;4981;50.966;4.842;2023-11-21T21:36:21;15.07;;;13.50;;
9884;SDS011;4981;50.966;4.842;2023-11-21T21:38:48;17.23;;;13.67;;
9884;SDS011;4981;50.966;4.842;2023-11-21T21:41:16;16.50;;;14.53;;
9884;SDS011;4981;50.966;4.842;2023-11-21T21:43:44;19.63;;;14.10;;
9884;SDS011;4981;50.966;4.842;2023-11-21T21:46:14;16.00;;;13.63;;
9884;SDS011;4981;50.966;4.842;2023-11-21T21:48:41;17.87;;;14.73;;
9884;SDS011;4981;50.966;4.842;2023-11-21T21:51:14;16.60;;;14.53;;
9884;SDS011;4981;50.966;4.842;2023-11-21T21:53:42;18.33;;;14.07;;
